createdAt,value
2022-12-23T00:04:58.884Z,1656
2022-12-23T00:10:17.373Z,1654
2022-12-23T00:15:36.149Z,1645
2022-12-23T00:20:54.689Z,1643
2022-12-23T00:26:13.198Z,1642
2022-12-23T00:31:16.376Z,1642
2022-12-23T00:36:35.044Z,1643
2022-12-23T00:41:53.296Z,1646
2022-12-23T00:47:11.491Z,1758
2022-12-23T00:52:30.277Z,1691
2022-12-23T00:57:48.466Z,1702
2022-12-23T01:03:07.025Z,1816
2022-12-23T01:08:26.154Z,1867
2022-12-23T01:13:44.350Z,1830
2022-12-23T01:19:02.574Z,1791
2022-12-23T01:24:21.094Z,1796
2022-12-23T01:29:39.036Z,1806
2022-12-23T01:34:57.777Z,1806
2022-12-23T01:40:16.016Z,1798
2022-12-23T01:45:35.088Z,1791
2022-12-23T01:50:53.364Z,1786
2022-12-23T01:56:11.591Z,1791
2022-12-23T02:01:30.205Z,1785
2022-12-23T02:06:49.214Z,1782
2022-12-23T02:12:07.465Z,1784
2022-12-23T02:17:25.712Z,1797
2022-12-23T02:22:44.229Z,1789
2022-12-23T02:28:02.456Z,1789
2022-12-23T02:33:20.869Z,1798
2022-12-23T02:38:39.074Z,1815
2022-12-23T02:43:57.030Z,1829
2022-12-23T02:49:14.937Z,1833
2022-12-23T02:54:33.159Z,1823
2022-12-23T02:59:51.669Z,1817
2022-12-23T03:05:10.279Z,1812
2022-12-23T03:10:28.754Z,1817
2022-12-23T03:15:47.377Z,1823
2022-12-23T03:21:05.939Z,1799
2022-12-23T03:26:24.415Z,1794
2022-12-23T03:31:42.830Z,1811
2022-12-23T03:37:01.830Z,1797
2022-12-23T03:42:20.606Z,1795
2022-12-23T03:47:39.387Z,1800
2022-12-23T03:52:57.871Z,1803
2022-12-23T03:58:16.065Z,1789
2022-12-23T04:03:34.900Z,1794
2022-12-23T04:08:53.429Z,1786
2022-12-23T04:14:11.644Z,1797
2022-12-23T04:19:29.872Z,1791
2022-12-23T04:24:48.099Z,1784
2022-12-23T04:30:06.054Z,1781
2022-12-23T04:35:23.998Z,1792
2022-12-23T04:40:42.303Z,1802
2022-12-23T04:46:01.074Z,1798
2022-12-23T04:51:19.843Z,1794
2022-12-23T04:56:37.918Z,1795
2022-12-23T05:01:55.946Z,1781
2022-12-23T05:07:14.563Z,1773
2022-12-23T05:12:32.785Z,1775
2022-12-23T05:17:51.257Z,1781
2022-12-23T05:23:09.482Z,1788
2022-12-23T05:28:27.690Z,1788
2022-12-23T05:33:46.301Z,1791
2022-12-23T05:39:04.644Z,1787
2022-12-23T05:44:22.582Z,1792
2022-12-23T05:49:41.347Z,1784
2022-12-23T05:55:00.138Z,1802
2022-12-23T06:00:18.890Z,1804
2022-12-23T06:05:37.378Z,1816
2022-12-23T06:10:55.906Z,1798
2022-12-23T06:16:14.402Z,1801
2022-12-23T06:21:32.707Z,1826
2022-12-23T06:26:56.676Z,1787
2022-12-23T06:32:15.931Z,1776
2022-12-23T06:37:34.404Z,1780
2022-12-23T06:42:52.624Z,1767
2022-12-23T06:48:11.618Z,1791
2022-12-23T06:53:30.119Z,1777
2022-12-23T06:58:48.326Z,1787
2022-12-23T07:04:06.311Z,1780
2022-12-23T07:09:24.783Z,1764
2022-12-23T07:14:43.307Z,1770
2022-12-23T07:20:01.847Z,1753
2022-12-23T07:25:20.342Z,1761
2022-12-23T07:30:38.569Z,1758
2022-12-23T07:35:56.493Z,1744
2022-12-23T07:41:14.971Z,1757
2022-12-23T07:46:33.533Z,1771
2022-12-23T07:51:52.404Z,1771
2022-12-23T07:57:11.181Z,1791
2022-12-23T08:02:29.499Z,1792
2022-12-23T08:07:48.225Z,1807
2022-12-23T08:13:06.424Z,1804
2022-12-23T08:18:24.649Z,1819
2022-12-23T08:23:42.907Z,1841
2022-12-23T08:29:01.392Z,1835
2022-12-23T08:34:20.164Z,1846
2022-12-23T08:39:39.083Z,1840
2022-12-23T08:44:57.292Z,1831
2022-12-23T08:50:16.142Z,1821
2022-12-23T08:55:34.925Z,1809
2022-12-23T09:00:53.701Z,1789
2022-12-23T09:06:12.192Z,1767
2022-12-23T09:11:30.202Z,1782
2022-12-23T09:16:48.686Z,1793
2022-12-23T09:22:07.486Z,1756
2022-12-23T09:27:26.007Z,1726
2022-12-23T09:32:44.202Z,1702
2022-12-23T09:37:46.843Z,1680
2022-12-23T09:43:05.365Z,1651
2022-12-23T09:48:23.867Z,1635
2022-12-23T09:53:42.395Z,1620
2022-12-23T09:59:01.190Z,1601
2022-12-23T10:04:19.516Z,1609
2022-12-23T10:09:38.298Z,1650
2022-12-23T10:14:56.899Z,1674
2022-12-23T10:20:15.130Z,1291
2022-12-23T10:25:33.407Z,1360
2022-12-23T10:31:10.799Z,1358
2022-12-23T10:36:58.755Z,1384
2022-12-23T10:42:17.261Z,1411
2022-12-23T10:47:36.013Z,1428
2022-12-23T10:52:55.301Z,1448
2022-12-23T10:58:13.835Z,1480
2022-12-23T11:03:32.203Z,1532
2022-12-23T11:08:36.269Z,1539
2022-12-23T11:13:55.148Z,1498
2022-12-23T11:19:13.376Z,1479
2022-12-23T11:24:32.963Z,1498
2022-12-23T11:30:01.404Z,1493
2022-12-23T11:35:20.244Z,1514
2022-12-23T11:40:39.298Z,1519
2022-12-23T11:45:59.169Z,1527
2022-12-23T11:51:17.842Z,1528
2022-12-23T11:56:36.422Z,1529
2022-12-23T12:01:55.205Z,1529
2022-12-23T12:07:13.946Z,1516
2022-12-23T12:12:32.704Z,1504
2022-12-23T12:17:51.211Z,1534
2022-12-23T12:23:10.505Z,1556
2022-12-23T12:28:29.257Z,1557
2022-12-23T12:33:47.506Z,1547
2022-12-23T12:39:05.947Z,1548
2022-12-23T12:44:24.736Z,1548
2022-12-23T12:49:43.270Z,1544
2022-12-23T12:55:01.806Z,1537
2022-12-23T13:00:20.557Z,1524
2022-12-23T13:05:39.183Z,1508
2022-12-23T13:10:57.419Z,1509
2022-12-23T13:16:15.930Z,1490
2022-12-23T13:21:34.737Z,1482
2022-12-23T13:26:53.477Z,1466
2022-12-23T13:32:11.713Z,1457
2022-12-23T13:37:30.498Z,1451
2022-12-23T13:42:49.057Z,1445
2022-12-23T13:47:51.915Z,1439
2022-12-23T13:53:14.121Z,1443
2022-12-23T13:58:37.859Z,1444
2022-12-23T14:03:56.607Z,1420
2022-12-23T14:09:15.425Z,1362
2022-12-23T14:14:33.348Z,1381
2022-12-23T14:19:51.834Z,1386
2022-12-23T14:25:10.328Z,1371
2022-12-23T14:30:28.252Z,1384
2022-12-23T14:35:47.016Z,1400
2022-12-23T14:41:06.256Z,1418
2022-12-23T14:46:25.067Z,1419
2022-12-23T14:51:43.528Z,1422
2022-12-23T14:57:01.772Z,1448
2022-12-23T15:02:20.598Z,1456
2022-12-23T15:07:39.430Z,1465
2022-12-23T15:12:57.683Z,1457
2022-12-23T15:18:15.944Z,1445
2022-12-23T15:23:34.142Z,1430
2022-12-23T15:28:52.947Z,1425
2022-12-23T15:34:16.728Z,1405
2022-12-23T15:39:35.900Z,1406
2022-12-23T15:44:54.906Z,1400
2022-12-23T15:50:13.142Z,1388
2022-12-23T15:55:31.623Z,1377
2022-12-23T16:00:50.139Z,1395
2022-12-23T16:06:08.621Z,1451
2022-12-23T16:11:26.562Z,1465
2022-12-23T16:16:45.339Z,1505
2022-12-23T16:22:04.091Z,1554
2022-12-23T16:27:22.280Z,1591
2022-12-23T16:32:40.251Z,1641
2022-12-23T16:37:58.434Z,1655
2022-12-23T16:43:16.681Z,1649
2022-12-23T16:48:35.226Z,1635
2022-12-23T16:53:53.746Z,1686
2022-12-23T16:59:12.216Z,1666
2022-12-23T17:04:30.475Z,1639
2022-12-23T17:09:48.708Z,1628
2022-12-23T17:15:07.193Z,1611
2022-12-23T17:20:25.695Z,1598
2022-12-23T17:25:43.903Z,1594
2022-12-23T17:31:03.385Z,1582
2022-12-23T17:36:35.045Z,1578
2022-12-23T17:41:53.876Z,1564
2022-12-23T17:47:12.095Z,1562
2022-12-23T17:52:30.874Z,1548
2022-12-23T17:57:49.346Z,1543
2022-12-23T18:03:07.558Z,1522
2022-12-23T18:08:26.077Z,1520
2022-12-23T18:13:44.567Z,1514
2022-12-23T18:19:03.079Z,1501
2022-12-23T18:24:21.853Z,1497
2022-12-23T18:29:40.332Z,1494
2022-12-23T18:34:58.520Z,1485
2022-12-23T18:40:17.064Z,1478
2022-12-23T18:45:35.868Z,1475
2022-12-23T18:50:54.342Z,1463
2022-12-23T18:56:12.868Z,1455
2022-12-23T19:01:31.379Z,1446
2022-12-23T19:06:50.371Z,1448
2022-12-23T19:12:08.907Z,1441
2022-12-23T19:17:27.496Z,1441
2022-12-23T19:22:45.980Z,1435
2022-12-23T19:28:04.769Z,1430
2022-12-23T19:33:22.683Z,1419
2022-12-23T19:38:41.456Z,1412
2022-12-23T19:44:00.289Z,1406
2022-12-23T19:49:20.260Z,1393
2022-12-23T19:54:38.677Z,1389
2022-12-23T19:59:57.192Z,1431
2022-12-23T20:05:15.967Z,1431
2022-12-23T20:10:34.437Z,1428
2022-12-23T20:15:52.997Z,1425
2022-12-23T20:21:11.164Z,1419
2022-12-23T20:26:29.397Z,1425
2022-12-23T20:31:48.014Z,1423
2022-12-23T20:37:06.963Z,1425
2022-12-23T20:42:25.431Z,1415
2022-12-23T20:47:43.773Z,1431
2022-12-23T20:53:02.283Z,1450
2022-12-23T20:58:21.013Z,1469
2022-12-23T21:03:39.337Z,1470
2022-12-23T21:08:58.576Z,1398
2022-12-23T21:14:17.350Z,1431
2022-12-23T21:19:35.817Z,1481
2022-12-23T21:24:54.022Z,1505
2022-12-23T21:30:12.223Z,1525
2022-12-23T21:35:30.443Z,1548
2022-12-23T21:40:48.952Z,1553
2022-12-23T21:46:07.447Z,1563
2022-12-23T21:51:26.226Z,1577
2022-12-23T21:56:44.138Z,1598
2022-12-23T22:02:02.431Z,1654
2022-12-23T22:07:20.906Z,1665
2022-12-23T22:12:39.394Z,1689
2022-12-23T22:17:57.631Z,1736
2022-12-23T22:23:16.118Z,1747
2022-12-23T22:28:34.341Z,1761
2022-12-23T22:33:52.830Z,1680
2022-12-23T22:39:15.973Z,1647
2022-12-23T22:44:39.795Z,1599
2022-12-23T22:49:58.580Z,1535
2022-12-23T22:55:17.099Z,1493
2022-12-23T23:00:35.934Z,1488
2022-12-23T23:05:54.430Z,1490
2022-12-23T23:11:12.939Z,1522
2022-12-23T23:16:31.100Z,1515
2022-12-23T23:21:49.410Z,1542
2022-12-23T23:27:07.679Z,1532
2022-12-23T23:32:25.898Z,1540
2022-12-23T23:37:44.433Z,1533
2022-12-23T23:43:03.229Z,1529
2022-12-23T23:48:21.429Z,1535
2022-12-23T23:53:39.916Z,1550
2022-12-23T23:58:59.120Z,1555
